createdAt,value
2019-03-31T00:00:38.181Z,52.45
2019-03-31T00:01:43.510Z,52.46
2019-03-31T00:02:47.138Z,52.48
2019-03-31T00:03:50.980Z,52.37
2019-03-31T00:04:54.614Z,52.63
2019-03-31T00:05:58.610Z,52.67
2019-03-31T00:07:02.215Z,52.60
2019-03-31T00:08:05.852Z,52.66
2019-03-31T00:09:09.479Z,52.48
2019-03-31T00:10:13.115Z,52.67
2019-03-31T00:11:16.827Z,52.84
2019-03-31T00:12:20.483Z,52.87
2019-03-31T00:13:24.116Z,52.82
2019-03-31T00:14:27.845Z,52.98
2019-03-31T00:15:31.460Z,53.12
2019-03-31T00:16:35.036Z,53.10
2019-03-31T00:17:38.709Z,53.25
2019-03-31T00:18:42.352Z,53.11
2019-03-31T00:19:45.983Z,53.10
2019-03-31T00:20:50.004Z,53.07
2019-03-31T00:21:53.632Z,52.93
2019-03-31T00:22:57.302Z,52.91
2019-03-31T00:24:00.935Z,52.85
2019-03-31T00:25:06.351Z,52.81
2019-03-31T00:26:09.987Z,52.65
2019-03-31T00:27:13.619Z,52.66
2019-03-31T00:28:17.423Z,52.86
2019-03-31T00:29:21.123Z,52.91
2019-03-31T00:30:25.278Z,52.81
2019-03-31T00:31:28.835Z,53.08
2019-03-31T00:32:32.785Z,53.28
2019-03-31T00:33:36.419Z,53.35
2019-03-31T00:34:40.143Z,53.51
2019-03-31T00:35:43.998Z,53.44
2019-03-31T00:36:48.026Z,53.45
2019-03-31T00:37:51.658Z,53.32
2019-03-31T00:38:55.509Z,53.13
2019-03-31T00:39:59.144Z,53.00
2019-03-31T00:41:02.807Z,53.18
2019-03-31T00:42:06.455Z,53.54
2019-03-31T00:43:10.078Z,53.73
2019-03-31T00:44:13.724Z,53.69
2019-03-31T00:45:17.348Z,53.73
2019-03-31T00:46:21.009Z,53.75
2019-03-31T00:47:24.629Z,53.75
2019-03-31T00:48:28.267Z,53.85
2019-03-31T00:49:31.821Z,53.75
2019-03-31T00:50:35.441Z,53.96
2019-03-31T00:51:39.037Z,53.68
2019-03-31T00:52:42.677Z,53.54
2019-03-31T00:53:46.778Z,53.37
2019-03-31T00:54:50.410Z,53.32
2019-03-31T00:55:53.973Z,53.69
2019-03-31T00:56:57.637Z,53.83
2019-03-31T00:58:01.696Z,54.03
2019-03-31T00:59:05.407Z,53.97
2019-03-31T01:00:11.386Z,53.83
2019-03-31T01:01:20.234Z,53.73
2019-03-31T01:02:25.546Z,54.05
2019-03-31T01:03:29.342Z,54.08
2019-03-31T01:04:33.230Z,54.00
2019-03-31T01:05:39.042Z,53.84
2019-03-31T01:06:42.833Z,54.22
2019-03-31T01:07:47.002Z,53.95
2019-03-31T01:08:50.634Z,53.60
2019-03-31T01:09:56.930Z,53.57
2019-03-31T01:11:03.682Z,54.24
2019-03-31T01:12:07.430Z,54.61
2019-03-31T01:13:13.474Z,54.53
2019-03-31T01:14:17.471Z,54.47
2019-03-31T01:15:24.352Z,54.51
2019-03-31T01:16:29.887Z,54.58
2019-03-31T01:17:33.717Z,54.68
2019-03-31T01:18:37.474Z,54.97
2019-03-31T01:19:41.290Z,55.22
2019-03-31T01:20:45.127Z,54.95
2019-03-31T01:21:48.763Z,54.68
2019-03-31T01:22:52.398Z,54.51
2019-03-31T01:23:56.031Z,54.37
2019-03-31T01:24:59.662Z,54.29
2019-03-31T01:26:03.924Z,54.36
2019-03-31T01:27:10.117Z,54.75
2019-03-31T01:28:13.832Z,54.84
2019-03-31T01:29:18.718Z,54.72
2019-03-31T01:30:23.327Z,54.79
2019-03-31T01:31:28.544Z,54.66
2019-03-31T01:32:32.282Z,54.58
2019-03-31T01:33:35.913Z,54.60
2019-03-31T01:34:39.620Z,54.64
2019-03-31T01:35:43.604Z,54.93
2019-03-31T01:36:47.358Z,54.98
2019-03-31T01:37:51.193Z,55.18
2019-03-31T01:38:54.985Z,55.26
2019-03-31T01:39:58.613Z,55.30
2019-03-31T01:41:02.245Z,55.46
2019-03-31T01:42:06.453Z,55.45
2019-03-31T01:43:10.174Z,55.66
2019-03-31T01:44:13.737Z,55.81
2019-03-31T01:45:17.434Z,55.95
2019-03-31T01:46:22.437Z,56.00
2019-03-31T01:47:26.104Z,55.99
2019-03-31T01:48:29.744Z,56.09
2019-03-31T01:49:33.445Z,56.04
2019-03-31T01:50:37.236Z,56.00
2019-03-31T01:51:40.849Z,56.18
2019-03-31T01:52:44.520Z,56.64
2019-03-31T01:53:48.157Z,56.85
2019-03-31T01:54:51.793Z,56.74
2019-03-31T01:55:55.416Z,56.74
2019-03-31T01:56:59.119Z,56.66
2019-03-31T01:58:02.937Z,56.67
2019-03-31T01:59:06.567Z,56.38
2019-03-31T02:00:12.541Z,56.30
2019-03-31T02:01:17.643Z,56.29
2019-03-31T02:02:23.426Z,56.32
2019-03-31T02:03:27.075Z,56.35
2019-03-31T02:04:30.705Z,56.37
2019-03-31T02:05:34.403Z,56.21
2019-03-31T02:06:38.037Z,56.20
2019-03-31T02:07:41.734Z,56.47
2019-03-31T02:08:45.338Z,56.61
2019-03-31T02:09:48.970Z,56.92
2019-03-31T02:10:53.000Z,56.83
2019-03-31T02:11:56.664Z,56.77
2019-03-31T02:13:00.291Z,56.94
2019-03-31T02:14:04.009Z,56.82
2019-03-31T02:15:08.263Z,56.83
2019-03-31T02:16:11.889Z,56.84
2019-03-31T02:17:15.619Z,56.62
2019-03-31T02:18:19.260Z,56.76
2019-03-31T02:19:22.928Z,56.63
2019-03-31T02:20:26.581Z,56.58
2019-03-31T02:21:30.220Z,56.41
2019-03-31T02:22:33.883Z,56.26
2019-03-31T02:23:38.603Z,56.27
2019-03-31T02:24:42.231Z,56.35
2019-03-31T02:25:45.981Z,56.43
2019-03-31T02:26:49.636Z,56.40
2019-03-31T02:27:53.982Z,56.40
2019-03-31T02:28:57.617Z,56.46
2019-03-31T02:30:01.265Z,56.51
2019-03-31T02:31:04.933Z,56.30
2019-03-31T02:32:22.490Z,56.35
2019-03-31T02:33:13.925Z,56.39
2019-03-31T02:34:17.490Z,56.23
2019-03-31T02:35:21.107Z,56.31
2019-03-31T02:36:24.779Z,56.13
2019-03-31T02:37:28.410Z,56.17
2019-03-31T02:38:32.051Z,56.12
2019-03-31T02:39:35.674Z,56.19
2019-03-31T02:40:39.687Z,56.11
2019-03-31T02:41:43.370Z,56.05
2019-03-31T02:42:46.995Z,56.25
2019-03-31T02:43:50.627Z,56.54
2019-03-31T02:44:54.259Z,56.44
2019-03-31T02:45:57.974Z,56.58
2019-03-31T02:47:01.647Z,56.65
2019-03-31T02:48:05.563Z,56.89
2019-03-31T02:49:09.202Z,56.90
2019-03-31T02:50:15.741Z,56.85
2019-03-31T02:51:19.371Z,56.83
2019-03-31T02:52:23.044Z,56.92
2019-03-31T02:53:26.675Z,56.88
2019-03-31T02:54:30.629Z,56.83
2019-03-31T02:55:34.350Z,57.05
2019-03-31T02:56:38.983Z,57.00
2019-03-31T02:57:44.061Z,56.81
2019-03-31T02:58:47.807Z,57.17
2019-03-31T02:59:51.944Z,57.29
2019-03-31T03:00:56.091Z,57.04
2019-03-31T03:02:01.259Z,57.00
2019-03-31T03:03:04.930Z,57.01
2019-03-31T03:04:09.664Z,56.93
2019-03-31T03:05:19.683Z,57.21
2019-03-31T03:06:22.038Z,57.41
2019-03-31T03:07:27.018Z,57.70
2019-03-31T03:08:33.228Z,57.76
2019-03-31T03:09:37.248Z,57.84
2019-03-31T03:10:43.388Z,57.73
2019-03-31T03:11:48.909Z,57.62
2019-03-31T03:12:53.888Z,57.59
2019-03-31T03:13:59.630Z,58.11
2019-03-31T03:15:05.516Z,58.07
2019-03-31T03:16:17.506Z,57.88
2019-03-31T03:17:21.140Z,57.92
2019-03-31T03:18:24.756Z,57.97
2019-03-31T03:19:28.425Z,58.22
2019-03-31T03:20:32.060Z,58.30
2019-03-31T03:21:35.700Z,58.12
2019-03-31T03:22:39.325Z,57.90
2019-03-31T03:23:42.969Z,58.47
2019-03-31T03:24:46.562Z,58.66
2019-03-31T03:25:56.549Z,58.46
2019-03-31T03:26:55.540Z,58.37
2019-03-31T03:27:59.179Z,58.44
2019-03-31T03:29:02.817Z,58.48
2019-03-31T03:30:07.701Z,58.56
2019-03-31T03:31:15.915Z,58.58
2019-03-31T03:32:16.655Z,58.85
2019-03-31T03:33:20.434Z,59.04
2019-03-31T03:34:24.258Z,58.93
2019-03-31T03:35:27.939Z,58.78
2019-03-31T03:36:31.574Z,58.60
2019-03-31T03:37:35.197Z,58.61
2019-03-31T03:38:38.834Z,58.55
2019-03-31T03:39:42.468Z,58.63
2019-03-31T03:40:46.133Z,58.90
2019-03-31T03:41:49.720Z,58.72
2019-03-31T03:42:53.318Z,58.89
2019-03-31T03:44:01.975Z,58.95
2019-03-31T03:45:02.315Z,58.84
2019-03-31T03:46:06.051Z,58.61
2019-03-31T03:47:09.676Z,58.69
2019-03-31T03:48:13.232Z,58.80
2019-03-31T03:49:17.018Z,58.66
2019-03-31T03:50:20.908Z,58.47
2019-03-31T03:51:24.546Z,58.42
2019-03-31T03:52:28.175Z,58.20
2019-03-31T03:53:31.823Z,58.01
2019-03-31T03:54:35.437Z,57.94
2019-03-31T03:55:39.078Z,57.76
2019-03-31T03:56:42.766Z,58.14
2019-03-31T03:57:46.396Z,58.61
2019-03-31T03:58:50.036Z,58.86
2019-03-31T03:59:53.679Z,59.08
2019-03-31T04:00:57.305Z,59.21
2019-03-31T04:02:00.978Z,59.11
2019-03-31T04:03:04.617Z,58.99
2019-03-31T04:04:08.248Z,59.03
2019-03-31T04:05:11.900Z,58.83
2019-03-31T04:06:15.532Z,58.88
2019-03-31T04:07:19.227Z,58.76
2019-03-31T04:08:22.839Z,58.87
2019-03-31T04:09:26.465Z,58.87
2019-03-31T04:10:45.406Z,59.40
2019-03-31T04:11:48.960Z,59.74
2019-03-31T04:12:52.659Z,59.38
2019-03-31T04:13:56.773Z,59.70
2019-03-31T04:15:00.602Z,60.14
2019-03-31T04:16:04.315Z,60.37
2019-03-31T04:17:07.941Z,60.29
2019-03-31T04:18:11.604Z,60.39
2019-03-31T04:19:15.168Z,60.50
2019-03-31T04:20:18.819Z,60.71
2019-03-31T04:21:22.430Z,60.63
2019-03-31T04:22:26.070Z,60.41
2019-03-31T04:23:29.666Z,60.22
2019-03-31T04:24:34.192Z,60.19
2019-03-31T04:25:37.720Z,60.40
2019-03-31T04:26:41.691Z,60.32
2019-03-31T04:27:45.328Z,60.47
2019-03-31T04:28:48.997Z,61.02
2019-03-31T04:29:52.628Z,60.96
2019-03-31T04:30:56.269Z,60.86
2019-03-31T04:31:59.901Z,60.94
2019-03-31T04:33:03.524Z,61.08
2019-03-31T04:34:07.251Z,61.19
2019-03-31T04:35:10.991Z,61.18
2019-03-31T04:36:14.607Z,60.93
2019-03-31T04:37:18.243Z,61.11
2019-03-31T04:38:21.817Z,61.25
2019-03-31T04:39:25.470Z,61.03
2019-03-31T04:40:29.108Z,61.04
2019-03-31T04:41:32.820Z,60.76
2019-03-31T04:42:36.380Z,60.59
2019-03-31T04:43:40.011Z,60.21
2019-03-31T04:44:43.684Z,59.66
2019-03-31T04:45:47.326Z,59.28
2019-03-31T04:46:50.948Z,58.97
2019-03-31T04:47:54.594Z,58.74
2019-03-31T04:48:58.150Z,58.56
2019-03-31T04:50:01.826Z,58.37
2019-03-31T04:51:05.757Z,58.25
2019-03-31T04:52:09.391Z,58.08
2019-03-31T04:53:12.954Z,57.98
2019-03-31T04:54:16.589Z,58.00
2019-03-31T04:55:20.262Z,58.10
2019-03-31T04:56:23.898Z,58.00
2019-03-31T04:57:27.533Z,57.90
2019-03-31T04:58:31.169Z,57.86
2019-03-31T04:59:34.827Z,57.73
2019-03-31T05:00:38.616Z,61.52
2019-03-31T05:01:42.454Z,65.16
2019-03-31T05:02:46.022Z,62.27
2019-03-31T05:04:03.402Z,59.78
2019-03-31T05:04:55.005Z,61.34
2019-03-31T05:05:58.671Z,62.94
2019-03-31T05:07:02.296Z,63.45
2019-03-31T05:08:06.856Z,62.12
2019-03-31T05:09:10.427Z,64.44
2019-03-31T05:10:14.187Z,63.25
2019-03-31T05:11:17.915Z,62.60
2019-03-31T05:12:21.556Z,62.67
2019-03-31T05:13:25.564Z,61.70
2019-03-31T05:14:29.200Z,61.36
2019-03-31T05:15:32.912Z,61.29
2019-03-31T05:16:36.582Z,61.05
2019-03-31T05:17:40.232Z,61.51
2019-03-31T05:18:43.867Z,61.53
2019-03-31T05:19:47.507Z,60.93
2019-03-31T05:20:51.149Z,60.50
2019-03-31T05:21:54.831Z,60.96
2019-03-31T05:23:12.199Z,60.87
2019-03-31T05:24:15.845Z,60.92
2019-03-31T05:25:19.497Z,60.59
2019-03-31T05:26:23.256Z,61.27
2019-03-31T05:27:26.976Z,61.70
2019-03-31T05:28:30.761Z,61.13
2019-03-31T05:29:35.837Z,61.59
2019-03-31T05:30:39.562Z,61.74
2019-03-31T05:31:44.544Z,62.04
2019-03-31T05:33:09.358Z,62.02
2019-03-31T05:34:19.346Z,61.84
2019-03-31T05:35:18.378Z,62.21
2019-03-31T05:36:22.023Z,62.36
2019-03-31T05:37:25.663Z,62.92
2019-03-31T05:38:29.494Z,62.42
2019-03-31T05:39:33.159Z,62.62
2019-03-31T05:40:36.809Z,62.20
2019-03-31T05:41:40.696Z,62.74
2019-03-31T05:42:45.860Z,62.70
2019-03-31T05:43:49.512Z,62.81
2019-03-31T05:44:53.145Z,62.66
2019-03-31T05:45:57.086Z,62.81
2019-03-31T05:47:00.767Z,62.86
2019-03-31T05:48:04.479Z,62.87
2019-03-31T05:49:08.434Z,62.58
2019-03-31T05:50:12.368Z,62.77
2019-03-31T05:51:16.090Z,63.21
2019-03-31T05:52:19.782Z,63.13
2019-03-31T05:53:23.461Z,62.84
2019-03-31T05:54:27.523Z,62.59
2019-03-31T05:55:31.156Z,62.06
2019-03-31T05:56:34.793Z,61.79
2019-03-31T05:57:38.443Z,61.80
2019-03-31T05:58:42.759Z,61.65
2019-03-31T05:59:46.479Z,61.79
2019-03-31T06:00:50.404Z,61.18
2019-03-31T06:01:55.806Z,61.15
2019-03-31T06:02:59.518Z,61.58
2019-03-31T06:04:03.450Z,61.00
2019-03-31T06:05:07.489Z,60.30
2019-03-31T06:06:11.123Z,60.42
2019-03-31T06:07:14.722Z,60.44
2019-03-31T06:08:18.355Z,60.28
2019-03-31T06:09:22.196Z,60.32
2019-03-31T06:10:32.040Z,60.38
2019-03-31T06:11:35.603Z,60.72
2019-03-31T06:12:39.169Z,60.43
2019-03-31T06:13:43.178Z,60.25
2019-03-31T06:14:46.847Z,59.63
2019-03-31T06:15:50.549Z,59.84
2019-03-31T06:16:54.191Z,59.61
2019-03-31T06:17:57.825Z,59.51
2019-03-31T06:19:01.453Z,59.64
2019-03-31T06:20:06.529Z,59.76
2019-03-31T06:21:10.160Z,59.72
2019-03-31T06:22:13.811Z,59.51
2019-03-31T06:23:17.455Z,59.01
2019-03-31T06:24:21.088Z,58.48
2019-03-31T06:25:24.760Z,58.25
2019-03-31T06:26:28.332Z,57.57
2019-03-31T06:27:37.823Z,57.44
2019-03-31T06:28:41.464Z,56.94
2019-03-31T06:29:45.108Z,56.90
2019-03-31T06:30:50.257Z,56.87
2019-03-31T06:31:53.883Z,57.25
2019-03-31T06:32:58.988Z,57.71
2019-03-31T06:34:02.750Z,57.16
2019-03-31T06:35:06.698Z,57.18
2019-03-31T06:36:13.121Z,56.42
2019-03-31T06:37:16.722Z,56.17
2019-03-31T06:38:20.447Z,56.18
2019-03-31T06:39:24.028Z,56.17
2019-03-31T06:40:28.055Z,55.64
2019-03-31T06:41:31.632Z,55.17
2019-03-31T06:42:35.257Z,54.71
2019-03-31T06:43:38.858Z,54.05
2019-03-31T06:44:42.499Z,52.99
2019-03-31T06:45:46.137Z,52.62
2019-03-31T06:46:49.768Z,52.26
2019-03-31T06:47:53.326Z,51.96
2019-03-31T06:48:57.330Z,51.39
2019-03-31T06:50:00.960Z,51.05
2019-03-31T06:51:04.599Z,51.02
2019-03-31T06:52:08.233Z,50.35
2019-03-31T06:53:12.174Z,50.29
2019-03-31T06:54:15.844Z,49.93
2019-03-31T06:55:19.493Z,49.52
2019-03-31T06:56:23.172Z,49.60
2019-03-31T06:57:26.911Z,49.15
2019-03-31T06:58:30.553Z,48.55
2019-03-31T06:59:34.203Z,48.11
2019-03-31T07:00:37.895Z,48.01
2019-03-31T07:01:42.726Z,48.00
2019-03-31T07:02:46.290Z,47.59
2019-03-31T07:03:49.939Z,47.40
2019-03-31T07:05:00.886Z,47.40
2019-03-31T07:05:58.937Z,47.77
2019-03-31T07:07:02.633Z,47.26
2019-03-31T07:08:06.271Z,46.98
2019-03-31T07:09:09.910Z,46.89
2019-03-31T07:10:13.561Z,45.61
2019-03-31T07:11:17.549Z,45.61
2019-03-31T07:12:21.185Z,45.13
2019-03-31T07:13:24.830Z,44.84
2019-03-31T07:14:28.471Z,44.84
2019-03-31T07:15:32.203Z,44.86
2019-03-31T07:16:36.160Z,44.20
2019-03-31T07:17:39.795Z,43.57
2019-03-31T07:18:43.442Z,43.11
2019-03-31T07:19:47.085Z,43.04
2019-03-31T07:20:51.274Z,43.04
2019-03-31T07:21:54.903Z,42.16
2019-03-31T07:22:58.568Z,41.74
2019-03-31T07:24:02.207Z,41.53
2019-03-31T07:25:08.161Z,41.29
2019-03-31T07:26:11.843Z,41.11
2019-03-31T07:27:17.146Z,40.57
2019-03-31T07:28:20.790Z,39.92
2019-03-31T07:29:24.423Z,39.93
2019-03-31T07:30:27.996Z,39.64
2019-03-31T07:31:31.657Z,39.84
2019-03-31T07:32:35.298Z,39.58
2019-03-31T07:33:38.868Z,39.18
2019-03-31T07:34:42.511Z,38.72
2019-03-31T07:35:46.161Z,38.16
2019-03-31T07:36:49.822Z,38.50
2019-03-31T07:37:53.453Z,38.50
2019-03-31T07:38:57.419Z,37.86
2019-03-31T07:40:01.537Z,37.75
2019-03-31T07:41:12.618Z,37.75
2019-03-31T07:42:10.957Z,37.44
2019-03-31T07:43:14.715Z,37.62
2019-03-31T07:44:18.568Z,37.02
2019-03-31T07:45:22.296Z,36.66
2019-03-31T07:46:25.930Z,36.39
2019-03-31T07:47:30.847Z,36.05
2019-03-31T07:48:34.500Z,36.01
2019-03-31T07:49:38.191Z,35.53
2019-03-31T07:50:41.910Z,36.29
2019-03-31T07:51:45.555Z,35.68
2019-03-31T07:52:49.238Z,35.35
2019-03-31T07:53:52.881Z,35.16
2019-03-31T07:54:56.529Z,35.27
2019-03-31T07:56:00.185Z,34.71
2019-03-31T07:57:06.813Z,35.10
2019-03-31T07:58:09.267Z,35.07
2019-03-31T07:59:12.991Z,34.73
2019-03-31T08:00:21.899Z,33.68
2019-03-31T08:01:25.508Z,34.07
2019-03-31T08:02:29.218Z,33.38
2019-03-31T08:03:32.893Z,33.95
2019-03-31T08:04:36.538Z,33.18
2019-03-31T08:05:40.186Z,33.82
2019-03-31T08:06:43.842Z,33.20
2019-03-31T08:07:47.482Z,33.46
2019-03-31T08:08:53.378Z,33.95
2019-03-31T08:09:56.523Z,33.06
2019-03-31T08:11:00.509Z,32.30
2019-03-31T08:12:04.150Z,32.28
2019-03-31T08:13:07.800Z,32.76
2019-03-31T08:14:11.469Z,31.60
2019-03-31T08:15:15.314Z,31.85
2019-03-31T08:16:18.948Z,32.07
2019-03-31T08:17:22.587Z,32.09
2019-03-31T08:18:26.228Z,32.29
2019-03-31T08:19:29.905Z,32.44
2019-03-31T08:20:33.541Z,33.48
2019-03-31T08:21:37.183Z,31.78
2019-03-31T08:22:41.174Z,31.49
2019-03-31T08:23:44.815Z,31.07
2019-03-31T08:24:48.415Z,31.65
2019-03-31T08:25:52.080Z,30.10
2019-03-31T08:26:55.969Z,30.19
2019-03-31T08:27:59.521Z,30.21
2019-03-31T08:29:03.241Z,28.87
2019-03-31T08:30:10.370Z,28.29
2019-03-31T08:31:14.014Z,28.99
2019-03-31T08:32:17.690Z,29.33
2019-03-31T08:33:21.317Z,29.62
2019-03-31T08:34:24.985Z,28.96
2019-03-31T08:35:28.616Z,29.00
2019-03-31T08:36:35.196Z,28.17
2019-03-31T08:37:37.571Z,26.79
2019-03-31T08:38:41.204Z,24.80
2019-03-31T08:39:44.844Z,26.09
2019-03-31T08:40:48.476Z,26.34
2019-03-31T08:41:51.981Z,25.86
2019-03-31T08:42:55.588Z,25.82
2019-03-31T08:43:59.218Z,26.00
2019-03-31T08:45:02.851Z,26.35
2019-03-31T08:46:06.486Z,25.33
2019-03-31T08:47:10.693Z,25.96
2019-03-31T08:48:14.373Z,23.87
2019-03-31T08:49:18.009Z,23.45
2019-03-31T08:50:21.636Z,24.36
2019-03-31T08:51:25.666Z,23.22
2019-03-31T08:52:29.303Z,22.83
2019-03-31T08:53:32.971Z,23.16
2019-03-31T08:54:36.920Z,23.77
2019-03-31T08:55:40.572Z,23.37
2019-03-31T08:56:44.207Z,22.21
2019-03-31T08:57:47.847Z,21.41
2019-03-31T08:58:51.452Z,21.33
2019-03-31T08:59:55.075Z,21.53
2019-03-31T09:02:24.765Z,21.22
2019-03-31T09:03:28.398Z,21.29
2019-03-31T09:04:32.307Z,21.07
2019-03-31T09:05:35.943Z,21.35
2019-03-31T09:06:39.576Z,20.08
2019-03-31T09:07:43.130Z,20.02
2019-03-31T09:08:46.774Z,19.07
2019-03-31T09:09:50.440Z,20.15
2019-03-31T09:10:54.006Z,19.03
2019-03-31T09:11:57.644Z,19.23
2019-03-31T09:13:01.234Z,18.21
2019-03-31T09:14:05.383Z,18.69
2019-03-31T09:15:11.809Z,18.17
2019-03-31T09:16:15.444Z,19.17
2019-03-31T09:17:19.076Z,19.29
2019-03-31T09:18:22.716Z,18.41
2019-03-31T09:19:26.332Z,18.67
2019-03-31T09:20:29.979Z,18.08
2019-03-31T09:21:33.694Z,17.97
2019-03-31T09:22:37.422Z,17.78
2019-03-31T09:23:41.056Z,18.16
2019-03-31T09:24:46.927Z,17.32
2019-03-31T09:25:50.595Z,17.05
2019-03-31T09:26:54.153Z,17.03
2019-03-31T09:27:57.804Z,17.35
2019-03-31T09:29:01.441Z,17.16
2019-03-31T09:30:10.752Z,17.45
2019-03-31T09:31:14.487Z,17.64
2019-03-31T09:32:18.120Z,17.29
2019-03-31T09:33:21.756Z,16.70
2019-03-31T09:34:25.389Z,16.86
2019-03-31T09:35:29.018Z,16.98
2019-03-31T09:36:32.608Z,17.72
2019-03-31T09:37:36.240Z,16.86
2019-03-31T09:38:39.876Z,17.43
2019-03-31T09:39:43.533Z,16.76
2019-03-31T09:40:47.215Z,16.72
2019-03-31T09:41:50.884Z,17.00
2019-03-31T09:42:54.516Z,16.62
2019-03-31T09:43:58.140Z,16.67
2019-03-31T09:45:01.774Z,16.34
2019-03-31T09:46:05.410Z,16.96
2019-03-31T09:47:09.164Z,17.62
2019-03-31T09:48:12.786Z,16.82
2019-03-31T09:49:16.453Z,17.09
2019-03-31T09:50:20.340Z,16.48
2019-03-31T09:51:23.936Z,17.10
2019-03-31T09:52:31.376Z,17.24
2019-03-31T09:53:34.391Z,17.40
2019-03-31T09:54:38.023Z,17.06
2019-03-31T09:55:41.658Z,17.13
2019-03-31T09:56:45.295Z,17.58
2019-03-31T09:57:48.884Z,18.16
2019-03-31T09:58:52.580Z,16.50
2019-03-31T09:59:57.853Z,17.90
2019-03-31T10:01:08.055Z,16.63
2019-03-31T10:02:14.598Z,17.23
2019-03-31T10:03:18.768Z,16.96
2019-03-31T10:04:22.549Z,18.55
2019-03-31T10:05:27.904Z,17.14
2019-03-31T10:06:48.457Z,16.97
2019-03-31T10:07:52.345Z,17.33
2019-03-31T10:08:56.116Z,17.10
2019-03-31T10:10:00.685Z,17.61
2019-03-31T10:11:14.895Z,17.69
2019-03-31T10:12:18.519Z,18.25
2019-03-31T10:13:22.277Z,16.77
2019-03-31T10:14:26.017Z,17.91
2019-03-31T10:15:30.229Z,18.74
2019-03-31T10:16:33.881Z,17.25
2019-03-31T10:17:37.503Z,17.82
2019-03-31T10:18:41.517Z,17.79
2019-03-31T10:19:45.122Z,17.08
2019-03-31T10:20:48.760Z,17.82
2019-03-31T10:21:52.326Z,17.56
2019-03-31T10:22:56.140Z,18.15
2019-03-31T10:23:59.707Z,17.43
2019-03-31T10:25:07.114Z,18.07
2019-03-31T10:26:31.133Z,18.73
2019-03-31T10:27:22.319Z,18.60
2019-03-31T10:28:25.944Z,17.81
2019-03-31T10:29:29.577Z,17.83
2019-03-31T10:30:42.764Z,16.84
2019-03-31T10:31:50.786Z,17.18
2019-03-31T10:32:54.419Z,17.18
2019-03-31T10:33:58.051Z,16.53
2019-03-31T10:35:01.687Z,16.22
2019-03-31T10:36:05.427Z,16.14
2019-03-31T10:37:09.066Z,15.93
2019-03-31T10:38:12.744Z,16.52
2019-03-31T10:39:16.437Z,15.67
2019-03-31T10:40:21.587Z,15.55
2019-03-31T10:41:25.412Z,17.07
2019-03-31T10:42:29.060Z,16.17
2019-03-31T10:43:32.705Z,15.59
2019-03-31T10:44:37.924Z,15.48
2019-03-31T10:45:41.688Z,15.19
2019-03-31T10:46:49.413Z,15.54
2019-03-31T10:47:53.072Z,15.50
2019-03-31T10:48:56.794Z,15.57
2019-03-31T10:50:00.415Z,15.20
2019-03-31T10:51:04.147Z,16.41
2019-03-31T10:52:07.781Z,15.67
2019-03-31T10:53:14.528Z,15.81
2019-03-31T10:54:18.364Z,15.56
2019-03-31T10:55:21.999Z,15.63
2019-03-31T10:56:25.641Z,15.83
2019-03-31T10:57:29.270Z,15.91
2019-03-31T10:58:32.924Z,15.06
2019-03-31T10:59:36.607Z,15.28
2019-03-31T11:00:44.554Z,15.51
2019-03-31T11:01:47.713Z,15.60
2019-03-31T11:02:52.818Z,15.33
2019-03-31T11:03:56.536Z,15.75
2019-03-31T11:05:00.370Z,15.78
2019-03-31T11:06:04.018Z,15.95
2019-03-31T11:07:07.670Z,16.73
2019-03-31T11:08:11.304Z,15.82
2019-03-31T11:09:14.894Z,15.48
2019-03-31T11:10:21.318Z,15.34
2019-03-31T11:11:24.939Z,15.93
2019-03-31T11:12:28.636Z,15.51
2019-03-31T11:13:33.145Z,15.06
2019-03-31T11:14:36.792Z,14.28
2019-03-31T11:15:44.913Z,16.27
2019-03-31T11:16:50.134Z,14.83
2019-03-31T11:17:53.756Z,13.83
2019-03-31T11:18:57.406Z,13.59
2019-03-31T11:20:01.451Z,13.01
2019-03-31T11:21:08.386Z,13.17
2019-03-31T11:22:13.681Z,12.65
2019-03-31T11:23:21.805Z,13.01
2019-03-31T11:24:25.463Z,13.09
2019-03-31T11:25:30.057Z,12.30
2019-03-31T11:26:36.817Z,13.03
2019-03-31T11:27:43.730Z,13.74
2019-03-31T11:28:45.904Z,13.27
2019-03-31T11:29:49.549Z,12.53
2019-03-31T11:30:53.355Z,12.77
2019-03-31T11:31:56.971Z,12.82
2019-03-31T11:33:02.063Z,12.63
2019-03-31T11:34:05.774Z,12.54
2019-03-31T11:35:10.973Z,13.44
2019-03-31T11:36:14.625Z,13.71
2019-03-31T11:37:18.317Z,14.84
2019-03-31T11:38:21.961Z,13.33
2019-03-31T11:39:25.557Z,12.53
2019-03-31T11:40:29.206Z,12.54
2019-03-31T11:41:34.714Z,12.45
2019-03-31T11:42:40.373Z,12.65
2019-03-31T11:43:45.761Z,12.42
2019-03-31T11:44:53.186Z,12.39
2019-03-31T11:45:56.785Z,13.35
2019-03-31T11:47:00.527Z,13.19
2019-03-31T11:48:04.425Z,12.51
2019-03-31T11:49:08.097Z,12.44
2019-03-31T11:50:15.401Z,12.38
2019-03-31T11:51:19.189Z,13.34
2019-03-31T11:52:22.841Z,13.38
2019-03-31T11:53:30.662Z,12.71
2019-03-31T11:54:35.337Z,13.59
2019-03-31T11:55:38.954Z,13.48
2019-03-31T11:56:42.605Z,12.91
2019-03-31T11:57:46.372Z,13.31
2019-03-31T11:58:51.540Z,13.36
2019-03-31T11:59:58.217Z,14.73
2019-03-31T12:01:01.897Z,13.01
2019-03-31T12:02:07.589Z,12.75
2019-03-31T12:03:10.919Z,13.29
2019-03-31T12:04:14.615Z,13.42
2019-03-31T12:05:18.369Z,12.98
2019-03-31T12:06:33.543Z,12.90
2019-03-31T12:07:46.046Z,13.42
2019-03-31T12:08:38.143Z,13.38
2019-03-31T12:09:41.843Z,13.31
2019-03-31T12:10:45.649Z,13.68
2019-03-31T12:11:50.963Z,13.05
2019-03-31T12:12:56.079Z,13.49
2019-03-31T12:13:59.732Z,13.64
2019-03-31T12:15:03.436Z,13.12
2019-03-31T12:16:08.747Z,13.38
2019-03-31T12:17:12.398Z,13.14
2019-03-31T12:18:38.108Z,12.80
2019-03-31T12:19:41.801Z,12.92
2019-03-31T12:20:47.028Z,13.70
2019-03-31T12:21:53.694Z,15.01
2019-03-31T12:23:00.242Z,14.49
2019-03-31T12:24:04.419Z,13.54
2019-03-31T12:25:08.938Z,13.34
2019-03-31T12:26:12.556Z,13.71
2019-03-31T12:27:16.205Z,13.38
2019-03-31T12:28:22.936Z,13.67
2019-03-31T12:29:26.540Z,13.55
2019-03-31T12:30:30.392Z,14.46
2019-03-31T12:31:34.396Z,14.13
2019-03-31T12:32:41.830Z,14.06
2019-03-31T12:33:45.521Z,13.96
2019-03-31T12:34:49.252Z,13.80
2019-03-31T12:35:52.978Z,13.82
2019-03-31T12:36:56.655Z,13.47
2019-03-31T12:38:00.712Z,14.06
2019-03-31T12:39:06.775Z,13.62
2019-03-31T12:40:33.556Z,14.63
2019-03-31T12:41:37.212Z,14.41
2019-03-31T12:42:40.896Z,14.96
2019-03-31T12:43:44.551Z,14.50
2019-03-31T12:44:48.210Z,14.65
2019-03-31T12:45:51.855Z,14.49
2019-03-31T12:46:56.374Z,14.69
2019-03-31T12:48:01.357Z,14.97
2019-03-31T12:49:05.715Z,15.58
2019-03-31T12:50:11.026Z,14.66
2019-03-31T12:51:14.676Z,14.19
2019-03-31T12:52:19.976Z,14.25
2019-03-31T12:53:23.636Z,14.10
2019-03-31T12:54:27.289Z,13.98
2019-03-31T12:55:31.027Z,14.54
2019-03-31T12:56:34.675Z,13.47
2019-03-31T12:57:41.375Z,13.19
2019-03-31T12:58:45.033Z,14.00
2019-03-31T12:59:48.670Z,14.16
2019-03-31T13:00:52.712Z,13.45
2019-03-31T13:01:56.361Z,14.05
2019-03-31T13:03:00.036Z,13.76
2019-03-31T13:04:03.826Z,13.98
2019-03-31T13:05:07.581Z,13.97
2019-03-31T13:06:11.242Z,14.21
2019-03-31T13:07:15.163Z,14.37
2019-03-31T13:08:18.956Z,14.63
2019-03-31T13:09:22.681Z,14.09
2019-03-31T13:10:26.347Z,14.07
2019-03-31T13:11:30.067Z,13.86
2019-03-31T13:12:35.097Z,14.01
2019-03-31T13:13:39.096Z,13.95
2019-03-31T13:14:42.744Z,14.23
2019-03-31T13:15:46.464Z,13.89
2019-03-31T13:16:50.115Z,14.67
2019-03-31T13:17:53.866Z,13.42
2019-03-31T13:18:57.529Z,13.54
2019-03-31T13:20:01.176Z,13.87
2019-03-31T13:21:04.923Z,14.06
2019-03-31T13:22:08.570Z,13.89
2019-03-31T13:23:12.258Z,13.78
2019-03-31T13:24:15.971Z,14.12
2019-03-31T13:25:20.007Z,14.16
2019-03-31T13:26:23.599Z,14.27
2019-03-31T13:27:31.612Z,14.52
2019-03-31T13:28:37.994Z,14.47
2019-03-31T13:29:43.374Z,14.85
2019-03-31T13:30:47.020Z,15.00
2019-03-31T13:31:50.664Z,15.06
2019-03-31T13:32:54.274Z,14.71
2019-03-31T13:33:58.019Z,15.22
2019-03-31T13:35:01.725Z,15.39
2019-03-31T13:36:05.560Z,15.82
2019-03-31T13:37:09.149Z,15.52
2019-03-31T13:38:12.988Z,15.34
2019-03-31T13:39:16.675Z,15.71
2019-03-31T13:40:21.184Z,15.64
2019-03-31T13:41:24.840Z,14.83
2019-03-31T13:42:28.424Z,15.17
2019-03-31T13:43:32.076Z,15.11
2019-03-31T13:44:35.822Z,15.66
2019-03-31T13:45:39.509Z,15.41
2019-03-31T13:46:43.172Z,15.40
2019-03-31T13:47:46.832Z,15.68
2019-03-31T13:48:50.421Z,15.70